SBMO/MCZ METAR and TAF weather

Enter ICAO airport designator
Station Type Date Time Source
SBMO METAR 2022/08/12 14:00 UTC NOAA

SBMO 121400Z 09010KT 9999 BKN023 29/22 Q1019


Station Type Date Time Source
SBMO Decoded METAR 2022/08/12 14:00 UTC NOAA

Maceio Aeroporto , Brazil (SBMO) 09-31S 035-47W 115M
Aug 12, 2022 - 10:00 AM EDT / 2022.08.12 1400 UTC
Wind: from the E (090 degrees) at 12 MPH (10 KT):0
Visibility: greater than 7 mile(s):0
Sky conditions: mostly cloudy
Temperature: 84 F (29 C)
Dew Point: 71 F (22 C)
Relative Humidity: 65%
Pressure (altimeter): 30.09 in. Hg (1019 hPa)
ob: SBMO 121400Z 09010KT 9999 BKN023 29/22 Q1019
cycle: 14

Station Type Date Time Source
SBMO TAF 2022/08/12 18:09 UTC NOAA

TAF TAF SBMO 121500Z 1218/1318 09010KT 9999 FEW030 TX29/1218Z TN21/1307Z
BECMG 1301/1303 31005KT FEW020
BECMG 1311/1313 10010KT BKN025
RMK PHD

Example: see airport list